Airfield :
LOGIN :

Register | Disclaimer

   EN    FR    IT 

 










Legend :    VFR   Marginal VFR   IFR   Intensive IFR   Very Intensive IFR
Visi :
Ceiling :
>= 8 km
>= 3000ft
5 to 8 km
1000 to 3000 ft
1500m to 5 km
500 to 1000 ft
800 to 1500m
200 to 500 ft
< 800m
< 200 ft
Symbols :   Thunderstorms  Fog  Heavy snow  Heavy precipitations  Wind > 20 kt
SIGMETs :     Misc.  Thunderstorms  Icing  Turbulence  Mountain Waves  Volcanic Ashes







- Airport Elevation : 461 ft
- IATA code : WIE


ETOU - Wiesbaden Army

CURRENT METAR :
  • 190056Z AUTO 02005KT 9999 CLR 02/M05 A3014 RMK AO2 SLP213 T00211055 $

EXPIRED METARs :
  • 182356Z AUTO 03006KT 9999 CLR 02/M08 A3016 RMK AO2 SLP220 T00211080 10058 20021 57013 $
  • 182256Z AUTO 03006KT 9999 CLR 03/M12 A3018 RMK AO2 SLP227 T00251125 400930025 $

TAF AMD TAF ETOU
Valid from the 18 at 22:00 until the 19 at 18:00 UTC


1822/1918 05009KT 9999 FEW090 QNH3012INS
BECMG 1902/1903 05015KT 9999 BKN015 620156 QNH3009INS
BECMG 1905/1906 05015KT 6000 -SN BKN010 620106 QNH2996INS
BECMG 1912/1913 06015G25KT 9999 NSW OVC050 620502 QNH2991INS TX09/1913Z TNM04/1901Z LAST NO AMDS AFT 1822 NEXT 1904
No reported NOTAMs for that airfield.



MET'MAP, your aeronautical weather chart ! - Copyright ORBIFLY December 2007 - Disclaimer

ORBIFLY MET'MAP TEAM :

Programming & Development : Alexandra Zaïnal
Concept & Development : Baudouin d'Aumeries
Co-Development & Prog : Marc-Olivier Méhu
Technical & hardware support : Manuel Goepfert

Contact : metmap@orbifly.com




SOURCES & CREDITS :

   NOAA